createdAt,value
2018-09-11T00:02:06.765Z,8.73
2018-09-11T00:04:35.863Z,10.10
2018-09-11T00:07:05.097Z,8.60
2018-09-11T00:09:34.304Z,8.10
2018-09-11T00:12:03.480Z,7.70
2018-09-11T00:14:32.606Z,10.63
2018-09-11T00:17:01.730Z,8.00
2018-09-11T00:19:30.862Z,10.37
2018-09-11T00:22:00.028Z,11.60
2018-09-11T00:24:29.158Z,10.00
2018-09-11T00:26:58.330Z,7.60
2018-09-11T00:29:27.580Z,9.97
2018-09-11T00:31:56.747Z,8.03
2018-09-11T00:34:25.867Z,8.90
2018-09-11T00:36:55.157Z,8.50
2018-09-11T00:39:24.370Z,10.40
2018-09-11T00:41:53.626Z,7.43
2018-09-11T00:44:22.830Z,7.00
2018-09-11T00:46:52.103Z,8.00
2018-09-11T00:49:21.261Z,11.53
2018-09-11T00:51:50.532Z,11.30
2018-09-11T00:54:19.740Z,9.60
2018-09-11T00:56:48.920Z,8.17
2018-09-11T00:59:18.140Z,9.97
2018-09-11T01:01:47.286Z,7.10
2018-09-11T01:04:16.438Z,10.23
2018-09-11T01:06:45.697Z,8.33
2018-09-11T01:09:14.851Z,12.10
2018-09-11T01:11:44.026Z,11.73
2018-09-11T01:14:13.591Z,7.33
2018-09-11T01:16:42.720Z,8.40
2018-09-11T01:19:11.920Z,9.87
2018-09-11T01:21:41.085Z,8.33
2018-09-11T01:24:10.272Z,8.43
2018-09-11T01:26:39.440Z,10.73
2018-09-11T01:29:08.753Z,12.00
2018-09-11T01:31:37.928Z,8.83
2018-09-11T01:34:07.890Z,8.83
2018-09-11T01:36:37.597Z,9.67
2018-09-11T01:39:10.760Z,8.50
2018-09-11T01:41:40.074Z,9.83
2018-09-11T01:44:09.998Z,9.63
2018-09-11T01:46:39.413Z,11.60
2018-09-11T01:49:08.646Z,9.73
2018-09-11T01:51:37.885Z,11.73
2018-09-11T01:54:07.348Z,12.67
2018-09-11T01:56:36.668Z,9.80
2018-09-11T01:59:05.933Z,10.17
2018-09-11T02:01:35.143Z,9.90
2018-09-11T02:04:04.372Z,9.60
2018-09-11T02:06:33.567Z,10.73
2018-09-11T02:09:02.906Z,8.93
2018-09-11T02:11:32.066Z,9.90
2018-09-11T02:14:01.409Z,10.97
2018-09-11T02:16:30.791Z,12.13
2018-09-11T02:19:00.072Z,11.87
2018-09-11T02:21:29.368Z,10.90
2018-09-11T02:23:58.741Z,11.17
2018-09-11T02:26:28.058Z,12.83
2018-09-11T02:28:57.340Z,10.27
2018-09-11T02:31:26.591Z,12.17
2018-09-11T02:33:55.885Z,10.77
2018-09-11T02:36:25.179Z,11.40
2018-09-11T02:38:54.486Z,11.83
2018-09-11T02:41:23.728Z,10.97
2018-09-11T02:43:52.969Z,11.33
2018-09-11T02:46:22.144Z,9.67
2018-09-11T02:48:51.266Z,13.67
2018-09-11T02:51:20.366Z,9.50
2018-09-11T02:53:49.468Z,9.20
2018-09-11T02:56:18.723Z,8.87
2018-09-11T02:58:47.959Z,10.23
2018-09-11T03:01:17.301Z,10.93
2018-09-11T03:03:46.520Z,10.37
2018-09-11T03:06:15.888Z,12.13
2018-09-11T03:08:45.192Z,10.93
2018-09-11T03:11:14.466Z,10.90
2018-09-11T03:13:43.823Z,11.33
2018-09-11T03:16:13.211Z,11.13
2018-09-11T03:18:42.713Z,10.77
2018-09-11T03:21:11.958Z,12.77
2018-09-11T03:23:41.238Z,10.93
2018-09-11T03:26:10.481Z,12.30
2018-09-11T03:28:39.677Z,12.37
2018-09-11T03:31:08.864Z,11.73
2018-09-11T03:33:38.059Z,11.77
2018-09-11T03:36:07.231Z,14.37
2018-09-11T03:38:36.408Z,13.73
2018-09-11T03:41:05.790Z,13.40
2018-09-11T03:43:35.061Z,12.67
2018-09-11T03:46:04.303Z,16.67
2018-09-11T03:48:33.515Z,11.73
2018-09-11T03:51:02.622Z,10.47
2018-09-11T03:53:31.781Z,11.43
2018-09-11T03:56:00.935Z,13.00
2018-09-11T03:58:30.153Z,14.80
2018-09-11T04:00:59.361Z,13.83
2018-09-11T04:03:28.590Z,13.17
2018-09-11T04:05:57.904Z,11.70
2018-09-11T04:08:27.183Z,12.70
2018-09-11T04:10:56.411Z,13.80
2018-09-11T04:13:25.673Z,12.53
2018-09-11T04:15:54.968Z,12.67
2018-09-11T04:18:24.328Z,12.43
2018-09-11T04:20:53.660Z,13.73
2018-09-11T04:23:22.920Z,15.53
2018-09-11T04:25:52.193Z,11.93
2018-09-11T04:28:21.552Z,12.93
2018-09-11T04:30:50.957Z,12.10
2018-09-11T04:33:20.213Z,14.20
2018-09-11T04:35:49.451Z,11.40
2018-09-11T04:38:18.753Z,13.60
2018-09-11T04:40:47.998Z,15.30
2018-09-11T04:43:17.193Z,14.27
2018-09-11T04:45:46.430Z,15.43
2018-09-11T04:48:15.588Z,17.67
2018-09-11T04:50:44.869Z,16.10
2018-09-11T04:53:14.126Z,15.37
2018-09-11T04:55:43.395Z,14.77
2018-09-11T04:58:12.710Z,14.80
2018-09-11T05:00:42.983Z,15.43
2018-09-11T05:03:12.339Z,13.03
2018-09-11T05:05:41.713Z,14.30
2018-09-11T05:08:10.973Z,12.90
2018-09-11T05:10:40.166Z,10.90
2018-09-11T05:13:09.300Z,10.37
2018-09-11T05:15:38.513Z,11.17
2018-09-11T05:18:07.810Z,11.13
2018-09-11T05:20:37.074Z,11.77
2018-09-11T05:23:06.641Z,12.57
2018-09-11T05:25:35.796Z,10.87
2018-09-11T05:28:05.016Z,11.50
2018-09-11T05:30:34.280Z,10.57
2018-09-11T05:33:03.590Z,10.10
2018-09-11T05:35:32.878Z,13.73
2018-09-11T05:38:02.633Z,9.30
2018-09-11T05:40:31.979Z,9.90
2018-09-11T05:43:01.331Z,12.37
2018-09-11T05:45:31.613Z,11.33
2018-09-11T05:48:00.910Z,11.57
2018-09-11T05:50:30.266Z,9.20
2018-09-11T05:52:59.868Z,9.73
2018-09-11T05:55:29.120Z,11.37
2018-09-11T05:57:58.394Z,12.77
2018-09-11T06:00:27.723Z,10.07
2018-09-11T06:02:57.058Z,10.20
2018-09-11T06:05:26.412Z,9.73
2018-09-11T06:07:55.745Z,10.83
2018-09-11T06:10:25.512Z,10.70
2018-09-11T06:12:54.780Z,10.90
2018-09-11T06:15:23.878Z,15.43
2018-09-11T06:17:53.025Z,13.43
2018-09-11T06:20:22.168Z,11.27
2018-09-11T06:22:51.474Z,11.23
2018-09-11T06:25:20.696Z,11.30
2018-09-11T06:27:49.951Z,10.03
2018-09-11T06:30:19.210Z,11.17
2018-09-11T06:32:48.446Z,11.47
2018-09-11T06:35:17.778Z,10.13
2018-09-11T06:37:46.905Z,10.73
2018-09-11T06:40:16.072Z,8.30
2018-09-11T06:42:45.297Z,9.27
2018-09-11T06:45:14.565Z,11.27
2018-09-11T06:47:43.803Z,10.97
2018-09-11T06:50:13.007Z,9.97
2018-09-11T06:52:42.317Z,11.07
2018-09-11T06:55:12.155Z,11.23
2018-09-11T06:57:41.500Z,11.13
2018-09-11T07:00:10.715Z,11.17
2018-09-11T07:02:39.942Z,11.20
2018-09-11T07:05:09.300Z,9.87
2018-09-11T07:07:38.610Z,11.30
2018-09-11T07:10:08.070Z,10.37
2018-09-11T07:12:38.265Z,15.37
2018-09-11T07:15:07.832Z,11.67
2018-09-11T07:17:37.183Z,11.90
2018-09-11T07:20:08.193Z,12.80
2018-09-11T07:22:37.483Z,11.68
2018-09-11T07:25:08.066Z,12.20
2018-09-11T07:27:37.957Z,12.65
2018-09-11T07:30:07.717Z,10.48
2018-09-11T07:32:41.405Z,12.60
2018-09-11T07:35:11.374Z,15.25
2018-09-11T07:37:40.616Z,12.00
2018-09-11T07:40:09.952Z,7.85
2018-09-11T07:42:39.378Z,10.23
2018-09-11T07:45:08.850Z,11.35
2018-09-11T07:47:38.874Z,10.25
2018-09-11T07:50:08.218Z,10.28
2018-09-11T07:52:37.673Z,8.48
2018-09-11T07:55:06.973Z,7.90
2018-09-11T07:57:36.215Z,7.70
2018-09-11T08:00:07.110Z,12.20
2018-09-11T08:02:36.511Z,11.08
2018-09-11T08:05:06.048Z,10.30
2018-09-11T08:07:35.303Z,9.95
2018-09-11T08:10:04.861Z,8.70
2018-09-11T08:12:34.121Z,12.03
2018-09-11T08:15:03.473Z,8.28
2018-09-11T08:17:32.766Z,13.48
2018-09-11T08:20:02.028Z,8.48
2018-09-11T08:22:31.308Z,8.18
2018-09-11T08:25:00.643Z,8.18
2018-09-11T08:27:30.014Z,7.95
2018-09-11T08:29:59.413Z,7.42
2018-09-11T08:32:28.824Z,8.78
2018-09-11T08:34:58.081Z,8.73
2018-09-11T08:37:27.459Z,9.28
2018-09-11T08:39:56.906Z,7.85
2018-09-11T08:42:26.162Z,12.13
2018-09-11T08:44:56.501Z,7.65
2018-09-11T08:47:25.829Z,6.75
2018-09-11T08:49:56.049Z,7.50
2018-09-11T08:52:25.337Z,5.62
2018-09-11T08:54:55.968Z,4.90
2018-09-11T08:57:25.171Z,5.90
2018-09-11T08:59:54.397Z,6.90
2018-09-11T09:02:23.643Z,7.22
2018-09-11T09:04:52.891Z,5.22
2018-09-11T09:07:22.216Z,11.28
2018-09-11T09:09:51.579Z,5.30
2018-09-11T09:12:20.873Z,8.83
2018-09-11T09:14:50.210Z,3.90
2018-09-11T09:17:19.525Z,3.67
2018-09-11T09:19:48.873Z,5.42
2018-09-11T09:22:18.119Z,4.85
2018-09-11T09:24:47.291Z,4.60
2018-09-11T09:27:16.561Z,6.22
2018-09-11T09:29:45.718Z,6.25
2018-09-11T09:32:15.041Z,5.20
2018-09-11T09:34:44.300Z,3.90
2018-09-11T09:37:14.316Z,4.05
2018-09-11T09:39:55.876Z,3.98
2018-09-11T09:42:25.152Z,4.28
2018-09-11T09:44:54.622Z,5.03
2018-09-11T09:47:23.883Z,3.98
2018-09-11T09:49:53.024Z,4.47
2018-09-11T09:52:22.215Z,3.80
2018-09-11T09:54:51.380Z,4.35
2018-09-11T09:57:20.668Z,3.80
2018-09-11T09:59:49.884Z,4.45
2018-09-11T10:02:22.668Z,4.08
2018-09-11T10:04:53.074Z,3.60
2018-09-11T10:07:23.626Z,3.40
2018-09-11T10:09:53.496Z,3.62
2018-09-11T10:12:23.315Z,3.72
2018-09-11T10:14:52.544Z,3.40
2018-09-11T10:17:21.726Z,3.87
2018-09-11T10:19:50.876Z,2.65
2018-09-11T10:22:20.122Z,3.60
2018-09-11T10:24:50.401Z,3.37
2018-09-11T10:27:19.833Z,2.42
2018-09-11T10:29:49.148Z,3.27
2018-09-11T10:32:18.460Z,2.35
2018-09-11T10:34:47.702Z,2.20
2018-09-11T10:37:18.060Z,2.50
2018-09-11T10:39:48.016Z,2.58
2018-09-11T10:42:17.447Z,3.02
2018-09-11T10:44:46.676Z,3.05
2018-09-11T10:47:15.813Z,2.55
2018-09-11T10:49:44.918Z,2.47
2018-09-11T10:52:14.013Z,2.45
2018-09-11T10:54:43.200Z,2.05
2018-09-11T10:57:12.461Z,3.60
2018-09-11T10:59:41.736Z,5.75
2018-09-11T11:02:11.045Z,2.30
2018-09-11T11:04:40.397Z,3.22
2018-09-11T11:07:09.796Z,2.37
2018-09-11T11:09:38.916Z,2.92
2018-09-11T11:12:08.111Z,2.20
2018-09-11T11:14:37.386Z,3.50
2018-09-11T11:17:12.310Z,18.67
2018-09-11T11:19:45.918Z,2.75
2018-09-11T11:22:15.316Z,2.40
2018-09-11T11:24:44.526Z,7.30
2018-09-11T11:27:13.727Z,3.30
2018-09-11T11:29:43.059Z,2.37
2018-09-11T11:32:12.303Z,3.47
2018-09-11T11:34:41.665Z,3.83
2018-09-11T11:37:11.284Z,2.90
2018-09-11T11:39:41.486Z,2.20
2018-09-11T11:42:10.891Z,4.17
2018-09-11T11:44:40.196Z,4.22
2018-09-11T11:47:09.533Z,2.80
2018-09-11T11:49:38.934Z,2.45
2018-09-11T11:52:08.143Z,2.60
2018-09-11T11:54:38.183Z,2.35
2018-09-11T11:57:07.471Z,2.87
2018-09-11T11:59:36.811Z,3.50
2018-09-11T12:02:06.135Z,2.92
2018-09-11T12:04:35.314Z,2.45
2018-09-11T12:07:04.605Z,4.25
2018-09-11T12:09:33.811Z,5.22
2018-09-11T12:12:03.108Z,3.05
2018-09-11T12:14:35.236Z,2.90
2018-09-11T12:17:04.546Z,2.33
2018-09-11T12:19:33.770Z,3.25
2018-09-11T12:22:02.941Z,5.58
2018-09-11T12:24:32.264Z,2.52
2018-09-11T12:27:01.706Z,3.70
2018-09-11T12:29:30.994Z,3.35
2018-09-11T12:32:00.240Z,4.92
2018-09-11T12:34:29.504Z,2.67
2018-09-11T12:36:58.878Z,2.67
2018-09-11T12:39:28.196Z,3.83
2018-09-11T12:42:01.162Z,2.40
2018-09-11T12:44:31.373Z,5.03
2018-09-11T12:47:01.625Z,3.22
2018-09-11T12:49:31.121Z,2.67
2018-09-11T12:52:00.444Z,2.42
2018-09-11T12:54:29.761Z,2.62
2018-09-11T12:56:59.013Z,3.15
2018-09-11T12:59:28.232Z,2.77
2018-09-11T13:01:57.591Z,2.83
2018-09-11T13:04:28.316Z,2.58
2018-09-11T13:06:57.924Z,2.45
2018-09-11T13:09:27.873Z,3.02
2018-09-11T13:11:57.699Z,2.95
2018-09-11T13:14:28.978Z,2.67
2018-09-11T13:16:59.349Z,2.50
2018-09-11T13:19:28.549Z,2.77
2018-09-11T13:21:58.409Z,4.22
2018-09-11T13:24:28.273Z,3.22
2018-09-11T13:26:58.484Z,2.77
2018-09-11T13:29:28.328Z,2.92
2018-09-11T13:31:58.249Z,2.72
2018-09-11T13:34:28.454Z,2.50
2018-09-11T13:36:57.741Z,2.35
2018-09-11T13:39:27.039Z,2.65
2018-09-11T13:41:56.421Z,2.50
2018-09-11T13:44:26.374Z,2.42
2018-09-11T13:46:55.660Z,2.40
2018-09-11T13:49:24.870Z,2.85
2018-09-11T13:51:54.595Z,2.98
2018-09-11T13:54:23.933Z,3.20
2018-09-11T13:56:53.280Z,2.72
2018-09-11T13:59:22.639Z,2.47
2018-09-11T14:01:52.344Z,7.97
2018-09-11T14:04:21.708Z,2.60
2018-09-11T14:06:51.969Z,7.62
2018-09-11T14:09:22.461Z,2.90
2018-09-11T14:11:51.813Z,11.78
2018-09-11T14:14:21.154Z,11.22
2018-09-11T14:16:50.421Z,3.02
2018-09-11T14:19:19.788Z,2.45
2018-09-11T14:21:49.144Z,2.92
2018-09-11T14:24:18.424Z,2.98
2018-09-11T14:26:47.808Z,2.52
2018-09-11T14:29:17.118Z,2.40
2018-09-11T14:31:47.370Z,4.12
2018-09-11T14:34:20.760Z,2.15
2018-09-11T14:36:49.969Z,2.35
2018-09-11T14:39:19.120Z,3.25
2018-09-11T14:41:48.284Z,6.17
2018-09-11T14:44:17.600Z,1.90
2018-09-11T14:46:46.933Z,2.47
2018-09-11T14:49:16.189Z,2.30
2018-09-11T14:51:45.503Z,2.37
2018-09-11T14:54:15.776Z,2.92
2018-09-11T14:56:44.991Z,1.92
2018-09-11T14:59:14.141Z,3.50
2018-09-11T15:01:43.786Z,2.40
2018-09-11T15:04:12.937Z,4.58
2018-09-11T15:06:42.118Z,3.40
2018-09-11T15:09:11.331Z,3.58
2018-09-11T15:11:40.530Z,3.25
2018-09-11T15:14:09.778Z,3.60
2018-09-11T15:16:39.022Z,2.42
2018-09-11T15:19:08.216Z,2.70
2018-09-11T15:21:37.391Z,2.50
2018-09-11T15:24:06.518Z,2.47
2018-09-11T15:26:35.801Z,2.20
2018-09-11T15:29:05.429Z,2.87
2018-09-11T15:31:34.794Z,2.77
2018-09-11T15:34:04.058Z,3.72
2018-09-11T15:36:33.393Z,2.58
2018-09-11T15:39:02.844Z,2.33
2018-09-11T15:41:32.123Z,2.87
2018-09-11T15:44:01.419Z,2.62
2018-09-11T15:46:30.741Z,2.83
2018-09-11T15:49:00.056Z,3.00
2018-09-11T15:51:30.458Z,3.58
2018-09-11T15:54:00.057Z,6.95
2018-09-11T15:56:29.933Z,7.20
2018-09-11T15:58:59.296Z,6.08
2018-09-11T16:01:28.668Z,5.72
2018-09-11T16:03:57.978Z,3.70
2018-09-11T16:06:27.350Z,3.05
2018-09-11T16:08:56.666Z,2.35
2018-09-11T16:11:26.001Z,3.35
2018-09-11T16:13:55.408Z,2.40
2018-09-11T16:16:24.615Z,4.40
2018-09-11T16:18:53.848Z,3.22
2018-09-11T16:21:23.098Z,2.72
2018-09-11T16:23:52.341Z,2.85
2018-09-11T16:26:23.706Z,2.40
2018-09-11T16:28:53.100Z,4.87
2018-09-11T16:31:22.294Z,2.45
2018-09-11T16:33:51.419Z,4.05
2018-09-11T16:36:21.036Z,2.58
2018-09-11T16:38:50.625Z,2.40
2018-09-11T16:41:19.931Z,2.87
2018-09-11T16:43:49.176Z,4.28
2018-09-11T16:46:18.339Z,4.10
2018-09-11T16:48:47.516Z,4.03
2018-09-11T16:51:16.671Z,3.30
2018-09-11T16:53:45.774Z,3.05
2018-09-11T16:56:14.871Z,4.30
2018-09-11T16:58:43.941Z,2.83
2018-09-11T17:01:13.146Z,2.30
2018-09-11T17:03:42.314Z,2.47
2018-09-11T17:06:11.548Z,6.05
2018-09-11T17:08:40.867Z,2.80
2018-09-11T17:11:10.080Z,2.55
2018-09-11T17:13:39.351Z,4.83
2018-09-11T17:16:09.044Z,3.60
2018-09-11T17:18:38.266Z,4.40
2018-09-11T17:21:07.609Z,2.40
2018-09-11T17:23:36.908Z,2.37
2018-09-11T17:26:06.760Z,2.85
2018-09-11T17:28:36.061Z,8.70
2018-09-11T17:31:05.366Z,10.85
2018-09-11T17:33:34.893Z,6.00
2018-09-11T17:36:04.211Z,6.37
2018-09-11T17:38:33.543Z,10.68
2018-09-11T17:41:02.816Z,8.25
2018-09-11T17:43:32.226Z,8.48
2018-09-11T17:46:01.499Z,11.60
2018-09-11T17:48:31.064Z,13.95
2018-09-11T17:51:00.492Z,18.00
2018-09-11T17:53:29.824Z,15.50
2018-09-11T17:55:59.111Z,13.23
2018-09-11T17:58:28.507Z,11.20
2018-09-11T18:00:57.793Z,8.20
2018-09-11T18:03:26.969Z,9.33
2018-09-11T18:05:57.271Z,8.73
2018-09-11T18:08:27.172Z,6.20
2018-09-11T18:10:57.498Z,9.80
2018-09-11T18:13:28.155Z,6.63
2018-09-11T18:15:57.524Z,7.87
2018-09-11T18:18:27.912Z,6.33
2018-09-11T18:20:57.744Z,7.83
2018-09-11T18:23:27.442Z,5.10
2018-09-11T18:25:56.789Z,5.70
2018-09-11T18:28:27.336Z,6.23
2018-09-11T18:30:56.889Z,4.73
2018-09-11T18:33:26.733Z,6.23
2018-09-11T18:35:56.026Z,6.60
2018-09-11T18:38:25.448Z,10.50
2018-09-11T18:40:54.819Z,6.17
2018-09-11T18:43:24.141Z,5.73
2018-09-11T18:45:53.433Z,7.67
2018-09-11T18:48:23.326Z,7.80
2018-09-11T18:50:52.582Z,6.47
2018-09-11T18:53:24.640Z,4.77
2018-09-11T18:55:53.906Z,8.90
2018-09-11T18:58:23.923Z,7.63
2018-09-11T19:00:54.285Z,7.50
2018-09-11T19:03:24.060Z,6.10
2018-09-11T19:05:53.603Z,5.30
2018-09-11T19:08:23.051Z,7.63
2018-09-11T19:10:52.489Z,6.73
2018-09-11T19:13:21.724Z,5.57
2018-09-11T19:15:51.231Z,6.60
2018-09-11T19:18:20.589Z,3.80
2018-09-11T19:20:49.885Z,6.27
2018-09-11T19:23:19.177Z,5.90
2018-09-11T19:25:48.674Z,4.00
2018-09-11T19:28:18.366Z,5.60
2018-09-11T19:30:48.244Z,4.87
2018-09-11T19:33:17.597Z,4.20
2018-09-11T19:35:46.870Z,4.67
2018-09-11T19:38:16.143Z,5.67
2018-09-11T19:40:45.427Z,6.83
2018-09-11T19:43:15.190Z,3.70
2018-09-11T19:45:44.619Z,4.90
2018-09-11T19:48:13.919Z,9.27
2018-09-11T19:50:43.367Z,5.37
2018-09-11T19:53:12.658Z,6.97
2018-09-11T19:55:43.138Z,5.97
2018-09-11T19:58:13.090Z,5.30
2018-09-11T20:00:42.496Z,4.17
2018-09-11T20:03:11.764Z,2.43
2018-09-11T20:05:41.221Z,4.40
2018-09-11T20:08:10.499Z,3.47
2018-09-11T20:10:40.735Z,3.40
2018-09-11T20:13:09.953Z,5.47
2018-09-11T20:15:39.180Z,5.30
2018-09-11T20:18:08.490Z,5.03
2018-09-11T20:20:37.878Z,8.10
2018-09-11T20:23:07.211Z,3.50
2018-09-11T20:25:36.474Z,5.37
2018-09-11T20:28:06.161Z,4.93
2018-09-11T20:30:35.582Z,4.60
2018-09-11T20:33:05.026Z,3.50
2018-09-11T20:35:34.886Z,3.77
2018-09-11T20:38:04.733Z,3.50
2018-09-11T20:40:34.151Z,5.00
2018-09-11T20:43:03.631Z,6.93
2018-09-11T20:45:33.041Z,4.27
2018-09-11T20:48:03.981Z,2.67
2018-09-11T20:50:33.213Z,4.30
2018-09-11T20:53:02.451Z,4.93
2018-09-11T20:55:31.724Z,2.97
2018-09-11T20:58:00.950Z,5.40
2018-09-11T21:00:30.161Z,6.27
2018-09-11T21:02:59.456Z,7.43
2018-09-11T21:05:29.041Z,5.17
2018-09-11T21:07:58.314Z,5.93
2018-09-11T21:10:27.648Z,5.83
2018-09-11T21:12:57.841Z,4.90
2018-09-11T21:15:27.227Z,6.83
2018-09-11T21:17:56.541Z,4.87
2018-09-11T21:20:25.813Z,5.83
2018-09-11T21:23:01.211Z,8.70
2018-09-11T21:25:30.481Z,8.53
2018-09-11T21:27:59.819Z,4.23
2018-09-11T21:30:29.643Z,4.33
2018-09-11T21:32:58.854Z,7.43
2018-09-11T21:35:28.216Z,7.23
2018-09-11T21:37:58.933Z,4.37
2018-09-11T21:40:28.236Z,5.27
2018-09-11T21:42:59.286Z,8.93
2018-09-11T21:45:46.695Z,6.33
2018-09-11T21:48:15.980Z,5.47
2018-09-11T21:50:45.311Z,7.37
2018-09-11T21:53:14.578Z,7.10
2018-09-11T21:55:43.898Z,5.90
2018-09-11T21:58:13.643Z,5.97
2018-09-11T22:00:48.333Z,4.10
2018-09-11T22:03:18.512Z,6.67
2018-09-11T22:05:48.402Z,9.77
2018-09-11T22:08:17.471Z,5.50
2018-09-11T22:10:46.561Z,6.53
2018-09-11T22:13:15.671Z,7.50
2018-09-11T22:15:44.945Z,4.60
2018-09-11T22:18:14.338Z,5.20
2018-09-11T22:20:43.685Z,7.80
2018-09-11T22:23:12.981Z,6.87
2018-09-11T22:25:42.281Z,6.20
2018-09-11T22:28:11.535Z,10.67
2018-09-11T22:30:40.792Z,7.37
2018-09-11T22:33:10.015Z,9.17
2018-09-11T22:35:39.138Z,5.30
2018-09-11T22:38:08.270Z,6.57
2018-09-11T22:40:37.360Z,4.90
2018-09-11T22:43:07.429Z,6.13
2018-09-11T22:45:36.828Z,8.73
2018-09-11T22:48:06.124Z,3.63
2018-09-11T22:50:35.583Z,4.70
2018-09-11T22:53:04.885Z,5.67
2018-09-11T22:55:34.021Z,4.37
2018-09-11T22:58:03.188Z,5.07
2018-09-11T23:00:32.376Z,4.77
2018-09-11T23:03:01.635Z,4.30
2018-09-11T23:05:30.769Z,4.37
2018-09-11T23:07:59.923Z,4.77
2018-09-11T23:10:29.061Z,6.90
2018-09-11T23:12:58.261Z,3.33
2018-09-11T23:15:27.441Z,3.77
2018-09-11T23:17:56.560Z,4.77
2018-09-11T23:20:26.260Z,4.77
2018-09-11T23:22:55.366Z,4.53
2018-09-11T23:25:24.568Z,5.97
2018-09-11T23:27:53.695Z,7.10
2018-09-11T23:30:22.800Z,4.50
2018-09-11T23:32:51.853Z,5.67
2018-09-11T23:35:21.040Z,5.33
2018-09-11T23:37:50.297Z,4.17
2018-09-11T23:40:19.610Z,4.20
2018-09-11T23:42:48.940Z,3.00
2018-09-11T23:45:18.065Z,3.43
2018-09-11T23:47:47.213Z,4.33
2018-09-11T23:50:16.452Z,3.80
2018-09-11T23:52:45.921Z,3.00
2018-09-11T23:55:15.118Z,4.40
2018-09-11T23:57:44.242Z,4.47
